createdAt,value
2023-03-13T00:02:13.969Z,9.75
2023-03-13T00:04:43.976Z,7.05
2023-03-13T00:07:13.889Z,9.83
2023-03-13T00:09:42.530Z,9.07
2023-03-13T00:12:11.391Z,5.23
2023-03-13T00:14:40.039Z,6.53
2023-03-13T00:17:08.772Z,6.10
2023-03-13T00:19:37.549Z,3.70
2023-03-13T00:22:07.551Z,6.13
2023-03-13T00:24:36.177Z,6.20
2023-03-13T00:27:05.504Z,6.27
2023-03-13T00:29:35.614Z,5.18
2023-03-13T00:32:04.364Z,4.45
2023-03-13T00:34:33.080Z,6.68
2023-03-13T00:37:01.717Z,5.47
2023-03-13T00:39:31.672Z,3.90
2023-03-13T00:42:03.979Z,8.82
2023-03-13T00:44:32.926Z,8.63
2023-03-13T00:47:01.598Z,4.45
2023-03-13T00:49:30.172Z,4.78
2023-03-13T00:51:58.734Z,5.83
2023-03-13T00:54:27.327Z,7.55
2023-03-13T00:56:57.280Z,4.55
2023-03-13T00:59:25.915Z,4.75
2023-03-13T01:01:54.741Z,7.13
2023-03-13T01:04:23.485Z,6.00
2023-03-13T01:06:52.091Z,6.72
2023-03-13T01:09:20.820Z,8.13
2023-03-13T01:11:49.541Z,8.52
2023-03-13T01:14:20.863Z,7.30
2023-03-13T01:16:49.766Z,7.43
2023-03-13T01:19:19.066Z,7.90
2023-03-13T01:21:48.284Z,6.15
2023-03-13T01:24:16.986Z,5.93
2023-03-13T01:26:45.567Z,6.90
2023-03-13T01:29:15.503Z,9.60
2023-03-13T01:31:45.504Z,5.33
2023-03-13T01:34:14.119Z,6.15
2023-03-13T01:36:43.787Z,7.33
2023-03-13T01:39:12.412Z,6.30
2023-03-13T01:41:40.978Z,9.30
2023-03-13T01:44:22.437Z,6.43
2023-03-13T01:46:52.484Z,4.72
2023-03-13T01:49:24.906Z,7.32
2023-03-13T01:51:56.895Z,5.53
2023-03-13T01:54:30.549Z,7.60
2023-03-13T01:57:02.655Z,7.23
2023-03-13T01:59:35.742Z,4.30
2023-03-13T02:02:07.079Z,5.70
2023-03-13T02:04:40.519Z,5.75
2023-03-13T02:07:15.282Z,4.68
2023-03-13T02:09:51.085Z,6.70
2023-03-13T02:12:24.063Z,7.25
2023-03-13T02:14:53.974Z,5.22
2023-03-13T02:17:24.976Z,6.72
2023-03-13T02:19:54.290Z,6.38
2023-03-13T02:22:30.367Z,5.60
2023-03-13T02:25:04.507Z,7.53
2023-03-13T02:27:34.555Z,7.32
2023-03-13T02:30:04.422Z,8.50
2023-03-13T02:32:33.371Z,5.95
2023-03-13T02:35:08.518Z,5.28
2023-03-13T02:37:38.093Z,6.43
2023-03-13T02:40:10.161Z,5.15
2023-03-13T02:42:42.485Z,6.68
2023-03-13T02:45:14.886Z,5.20
2023-03-13T02:47:43.470Z,6.00
2023-03-13T02:50:13.757Z,8.00
2023-03-13T02:52:46.495Z,3.93
2023-03-13T02:55:19.183Z,5.53
2023-03-13T02:57:49.651Z,4.50
2023-03-13T03:00:19.446Z,3.80
2023-03-13T03:02:48.071Z,7.03
2023-03-13T03:05:16.635Z,4.75
2023-03-13T03:07:45.208Z,5.72
2023-03-13T03:10:14.197Z,3.93
2023-03-13T03:12:42.956Z,8.15
2023-03-13T03:15:14.133Z,2.28
2023-03-13T03:17:42.792Z,2.15
2023-03-13T03:20:12.545Z,2.20
2023-03-13T03:22:41.741Z,2.70
2023-03-13T03:25:11.013Z,5.90
2023-03-13T03:27:39.598Z,3.00
2023-03-13T03:30:09.427Z,3.85
2023-03-13T03:32:39.357Z,3.35
2023-03-13T03:35:08.891Z,2.35
2023-03-13T03:37:37.506Z,3.00
2023-03-13T03:40:06.916Z,1.73
2023-03-13T03:42:35.494Z,2.80
2023-03-13T03:45:04.215Z,1.35
2023-03-13T03:47:32.813Z,0.90
2023-03-13T03:50:03.709Z,1.42
2023-03-13T03:52:32.304Z,1.25
2023-03-13T03:55:00.890Z,2.28
2023-03-13T03:57:29.472Z,0.95
2023-03-13T03:59:58.224Z,0.65
2023-03-13T04:02:26.934Z,0.50
2023-03-13T04:04:55.574Z,1.02
2023-03-13T04:07:26.373Z,0.93
2023-03-13T04:09:54.951Z,0.90
2023-03-13T04:12:23.704Z,1.55
2023-03-13T04:14:52.307Z,0.93
2023-03-13T04:17:20.869Z,0.47
2023-03-13T04:19:49.449Z,2.13
2023-03-13T04:22:18.014Z,0.60
2023-03-13T04:24:47.945Z,0.40
2023-03-13T04:27:16.540Z,0.68
2023-03-13T04:29:45.467Z,0.63
2023-03-13T04:32:14.057Z,0.80
2023-03-13T04:34:42.660Z,0.40
2023-03-13T04:37:11.370Z,0.70
2023-03-13T04:39:40.021Z,1.90
2023-03-13T04:42:12.252Z,1.40
2023-03-13T04:44:43.111Z,1.20
2023-03-13T04:47:12.154Z,0.50
2023-03-13T04:49:40.710Z,1.13
2023-03-13T04:52:09.498Z,0.90
2023-03-13T04:54:38.066Z,1.00
2023-03-13T04:57:06.940Z,2.00
2023-03-13T04:59:37.000Z,0.80
2023-03-13T05:02:05.729Z,0.50
2023-03-13T05:04:34.325Z,0.50
2023-03-13T05:07:02.961Z,0.60
2023-03-13T05:09:31.601Z,0.52
2023-03-13T05:12:00.198Z,0.65
2023-03-13T05:14:28.852Z,1.60
2023-03-13T05:16:58.822Z,0.90
2023-03-13T05:19:27.427Z,0.77
2023-03-13T05:21:56.040Z,0.50
2023-03-13T05:24:24.577Z,0.50
2023-03-13T05:26:53.216Z,0.70
2023-03-13T05:29:22.074Z,0.70
2023-03-13T05:31:50.645Z,0.70
2023-03-13T05:34:20.669Z,0.30
2023-03-13T05:36:49.371Z,0.57
2023-03-13T05:39:18.009Z,1.08
2023-03-13T05:41:46.594Z,1.40
2023-03-13T05:44:15.202Z,1.00
2023-03-13T05:46:43.891Z,1.73
2023-03-13T05:49:12.529Z,0.70
2023-03-13T05:51:42.532Z,0.75
2023-03-13T05:54:12.139Z,0.80
2023-03-13T05:56:42.320Z,2.90
2023-03-13T05:59:10.890Z,0.80
2023-03-13T06:01:39.473Z,1.05
2023-03-13T06:04:08.183Z,1.55
2023-03-13T06:06:36.857Z,0.90
2023-03-13T06:09:07.092Z,0.73
2023-03-13T06:11:35.674Z,0.68
2023-03-13T06:14:04.302Z,0.70
2023-03-13T06:16:33.089Z,1.80
2023-03-13T06:19:02.261Z,1.13
2023-03-13T06:21:30.911Z,0.85
2023-03-13T06:23:59.463Z,0.50
2023-03-13T06:26:29.447Z,0.60
2023-03-13T06:28:58.832Z,0.70
2023-03-13T06:31:27.532Z,0.65
2023-03-13T06:33:56.819Z,0.70
2023-03-13T06:36:26.306Z,0.70
2023-03-13T06:38:54.891Z,1.60
2023-03-13T06:41:24.496Z,1.58
2023-03-13T06:43:54.446Z,2.10
2023-03-13T06:46:25.203Z,0.82
2023-03-13T06:48:53.945Z,1.02
2023-03-13T06:51:23.707Z,1.10
2023-03-13T06:53:52.834Z,0.75
2023-03-13T06:56:22.023Z,0.63
2023-03-13T06:58:51.644Z,0.70
2023-03-13T07:01:21.853Z,2.38
2023-03-13T07:03:50.890Z,1.95
2023-03-13T07:06:19.818Z,1.40
2023-03-13T07:08:48.662Z,2.05
2023-03-13T07:11:18.117Z,1.00
2023-03-13T07:13:46.723Z,1.45
2023-03-13T07:16:16.614Z,0.80
2023-03-13T07:18:46.584Z,2.25
2023-03-13T07:21:15.427Z,1.55
2023-03-13T07:23:43.975Z,1.15
2023-03-13T07:26:14.776Z,2.70
2023-03-13T07:28:44.420Z,1.20
2023-03-13T07:31:15.487Z,1.70
2023-03-13T07:33:45.967Z,2.47
2023-03-13T07:36:15.989Z,3.10
2023-03-13T07:38:44.979Z,2.10
2023-03-13T07:41:14.500Z,3.17
2023-03-13T07:43:43.056Z,2.03
2023-03-13T07:46:14.197Z,2.20
2023-03-13T07:48:44.216Z,2.40
2023-03-13T07:51:16.981Z,1.48
2023-03-13T07:53:47.733Z,2.13
2023-03-13T07:56:18.593Z,2.50
2023-03-13T07:58:47.240Z,1.80
2023-03-13T08:01:19.112Z,3.50
2023-03-13T08:03:49.307Z,2.58
2023-03-13T08:06:20.901Z,2.45
2023-03-13T08:08:50.025Z,1.75
2023-03-13T08:11:20.987Z,1.57
2023-03-13T08:13:50.597Z,1.80
2023-03-13T08:16:21.220Z,1.57
2023-03-13T08:18:51.605Z,3.40
2023-03-13T08:21:23.958Z,3.50
2023-03-13T08:23:55.284Z,3.20
2023-03-13T08:26:25.611Z,1.85
2023-03-13T08:28:55.656Z,1.67
2023-03-13T08:31:26.096Z,1.75
2023-03-13T08:33:54.995Z,2.05
2023-03-13T08:36:26.746Z,2.70
2023-03-13T08:38:56.932Z,5.13
2023-03-13T08:41:27.960Z,3.17
2023-03-13T08:43:57.356Z,2.28
2023-03-13T08:46:26.569Z,3.65
2023-03-13T08:48:56.051Z,2.10
2023-03-13T08:51:28.131Z,4.13
2023-03-13T08:53:57.553Z,2.67
2023-03-13T08:56:30.472Z,1.87
2023-03-13T08:59:00.964Z,3.88
2023-03-13T09:01:31.473Z,3.05
2023-03-13T09:04:03.426Z,3.58
2023-03-13T09:06:34.708Z,2.25
2023-03-13T09:09:04.254Z,4.40
2023-03-13T09:11:33.289Z,2.75
2023-03-13T09:14:01.878Z,3.42
2023-03-13T09:16:32.210Z,3.85
2023-03-13T09:19:01.697Z,2.25
2023-03-13T09:21:33.798Z,3.23
2023-03-13T09:24:03.372Z,2.67
2023-03-13T09:26:32.149Z,2.00
2023-03-13T09:29:00.786Z,3.10
2023-03-13T09:31:31.224Z,3.10
2023-03-13T09:34:00.440Z,1.75
2023-03-13T09:36:29.471Z,2.92
2023-03-13T09:39:01.135Z,1.87
2023-03-13T09:41:35.386Z,3.53
2023-03-13T09:44:08.695Z,2.35
2023-03-13T09:46:45.292Z,2.55
2023-03-13T09:49:31.158Z,2.65
2023-03-13T09:52:13.188Z,1.90
2023-03-13T09:54:49.315Z,2.50
2023-03-13T09:57:25.107Z,2.10
2023-03-13T09:59:58.642Z,2.20
2023-03-13T10:02:31.892Z,1.30
2023-03-13T10:05:09.088Z,2.23
2023-03-13T10:07:38.499Z,2.10
2023-03-13T10:10:15.566Z,3.00
2023-03-13T10:12:47.507Z,2.57
2023-03-13T10:15:38.140Z,2.13
2023-03-13T10:18:17.907Z,1.25
2023-03-13T10:20:51.566Z,1.70
2023-03-13T10:23:39.221Z,2.08
2023-03-13T10:26:17.759Z,3.75
2023-03-13T10:28:46.114Z,2.70
2023-03-13T10:31:23.068Z,2.83
2023-03-13T10:33:51.384Z,1.30
2023-03-13T10:36:21.314Z,2.67
2023-03-13T10:38:53.161Z,1.90
2023-03-13T10:41:30.508Z,3.95
2023-03-13T10:44:04.401Z,1.13
2023-03-13T10:46:35.787Z,1.30
2023-03-13T10:49:14.333Z,2.55
2023-03-13T10:51:49.682Z,1.50
2023-03-13T10:54:25.529Z,1.33
2023-03-13T10:57:28.123Z,2.08
2023-03-13T10:59:57.412Z,2.78
2023-03-13T11:02:32.988Z,1.15
2023-03-13T11:05:01.990Z,1.23
2023-03-13T11:07:33.963Z,1.52
2023-03-13T11:10:17.899Z,1.25
2023-03-13T11:12:51.352Z,1.77
2023-03-13T11:15:26.677Z,0.60
2023-03-13T11:18:02.406Z,0.98
2023-03-13T11:20:34.205Z,0.75
2023-03-13T11:23:20.850Z,1.40
2023-03-13T11:26:02.983Z,0.77
2023-03-13T11:28:51.719Z,0.50
2023-03-13T11:31:28.835Z,0.68
2023-03-13T11:34:05.490Z,0.45
2023-03-13T11:36:38.549Z,1.00
2023-03-13T11:39:41.499Z,0.63
2023-03-13T11:42:32.258Z,0.80
2023-03-13T11:45:14.217Z,0.70
2023-03-13T11:47:55.679Z,0.85
2023-03-13T11:50:41.068Z,0.70
2023-03-13T11:53:30.646Z,0.38
2023-03-13T11:56:11.689Z,0.60
2023-03-13T11:59:02.575Z,0.57
2023-03-13T12:01:38.298Z,1.20
2023-03-13T12:04:14.195Z,0.50
2023-03-13T12:06:48.023Z,1.33
2023-03-13T12:09:23.038Z,0.70
2023-03-13T12:12:03.315Z,0.47
2023-03-13T12:14:38.485Z,1.10
2023-03-13T12:17:14.066Z,0.43
2023-03-13T12:19:49.013Z,1.65
2023-03-13T12:22:24.218Z,0.40
2023-03-13T12:25:01.454Z,0.68
2023-03-13T12:27:36.369Z,1.25
2023-03-13T12:30:19.589Z,1.23
2023-03-13T12:32:58.631Z,1.35
2023-03-13T12:35:30.468Z,1.27
2023-03-13T12:38:09.624Z,1.00
2023-03-13T12:40:46.320Z,1.40
2023-03-13T12:43:22.991Z,0.30
2023-03-13T12:46:12.015Z,0.80
2023-03-13T12:49:11.815Z,0.80
2023-03-13T12:51:59.148Z,0.40
2023-03-13T12:54:47.935Z,0.35
2023-03-13T12:57:37.530Z,0.98
2023-03-13T13:00:15.919Z,0.90
2023-03-13T13:02:44.596Z,1.17
2023-03-13T13:05:22.046Z,0.77
2023-03-13T13:07:56.356Z,0.85
2023-03-13T13:10:26.856Z,0.70
2023-03-13T13:13:21.061Z,0.80
2023-03-13T13:16:01.418Z,0.60
2023-03-13T13:18:31.606Z,0.77
2023-03-13T13:21:26.556Z,1.20
2023-03-13T13:23:56.630Z,0.35
2023-03-13T13:26:52.079Z,1.33
2023-03-13T13:30:00.350Z,0.98
2023-03-13T13:32:46.965Z,0.40
2023-03-13T13:35:32.084Z,1.30
2023-03-13T13:38:36.968Z,0.30
2023-03-13T13:41:39.680Z,0.55
2023-03-13T13:44:30.155Z,0.68
2023-03-13T13:47:02.140Z,0.22
2023-03-13T13:49:55.510Z,1.00
2023-03-13T13:52:42.707Z,0.80
2023-03-13T13:55:45.158Z,0.70
2023-03-13T13:58:21.178Z,1.42
2023-03-13T14:00:56.596Z,1.20
2023-03-13T14:03:27.284Z,0.87
2023-03-13T14:06:01.291Z,0.40
2023-03-13T14:08:32.114Z,1.38
2023-03-13T14:11:24.473Z,0.30
2023-03-13T14:14:15.474Z,0.40
2023-03-13T14:16:47.571Z,1.00
2023-03-13T14:19:29.375Z,0.30
2023-03-13T14:22:03.113Z,0.63
2023-03-13T14:24:31.746Z,0.60
2023-03-13T14:27:02.193Z,0.47
2023-03-13T14:29:30.663Z,0.60
2023-03-13T14:32:00.928Z,0.70
2023-03-13T14:34:32.683Z,0.60
2023-03-13T14:37:17.679Z,0.75
2023-03-13T14:39:48.842Z,0.95
2023-03-13T14:42:20.066Z,1.67
2023-03-13T14:44:50.343Z,1.23
2023-03-13T14:47:25.219Z,1.63
2023-03-13T14:49:59.922Z,1.00
2023-03-13T14:52:29.645Z,0.40
2023-03-13T14:55:02.265Z,1.30
2023-03-13T14:57:33.583Z,0.65
2023-03-13T15:00:41.659Z,0.60
2023-03-13T15:03:34.376Z,2.00
2023-03-13T15:06:19.308Z,1.80
2023-03-13T15:08:50.006Z,1.35
2023-03-13T15:11:32.162Z,0.40
2023-03-13T15:14:02.354Z,0.88
2023-03-13T15:16:31.308Z,0.57
2023-03-13T15:18:59.621Z,0.80
2023-03-13T15:21:31.093Z,0.95
2023-03-13T15:24:03.359Z,0.20
2023-03-13T15:26:31.704Z,0.82
2023-03-13T15:29:01.360Z,1.20
2023-03-13T15:31:30.727Z,0.30
2023-03-13T15:34:01.624Z,0.90
2023-03-13T15:36:32.701Z,0.87
2023-03-13T15:39:00.982Z,1.60
2023-03-13T15:41:29.418Z,1.80
2023-03-13T15:43:57.782Z,0.53
2023-03-13T15:46:28.949Z,1.50
2023-03-13T15:48:57.339Z,1.35
2023-03-13T15:51:25.896Z,1.23
2023-03-13T15:53:54.185Z,1.60
2023-03-13T15:56:24.052Z,1.33
2023-03-13T15:58:52.757Z,0.90
2023-03-13T16:01:23.148Z,0.93
2023-03-13T16:03:52.866Z,1.00
2023-03-13T16:06:30.882Z,1.20
2023-03-13T16:09:00.224Z,1.63
2023-03-13T16:11:29.936Z,1.23
2023-03-13T16:13:58.555Z,0.45
2023-03-13T16:16:29.688Z,0.95
2023-03-13T16:19:00.353Z,0.70
2023-03-13T16:21:31.418Z,1.20
2023-03-13T16:23:59.753Z,0.50
2023-03-13T16:26:31.292Z,1.88
2023-03-13T16:28:59.777Z,1.38
2023-03-13T16:31:31.285Z,1.80
2023-03-13T16:34:02.339Z,1.00
2023-03-13T16:36:32.870Z,1.20
2023-03-13T16:39:03.078Z,1.08
2023-03-13T16:41:32.806Z,0.97
2023-03-13T16:44:01.206Z,1.35
2023-03-13T16:46:38.728Z,0.88
2023-03-13T16:49:14.052Z,1.52
2023-03-13T16:51:42.758Z,0.90
2023-03-13T16:54:12.125Z,0.97
2023-03-13T16:56:43.205Z,1.75
2023-03-13T16:59:15.011Z,2.42
2023-03-13T17:01:43.311Z,1.88
2023-03-13T17:04:13.510Z,1.43
2023-03-13T17:06:44.768Z,2.83
2023-03-13T17:09:16.499Z,1.52
2023-03-13T17:11:45.535Z,0.85
2023-03-13T17:14:14.360Z,0.93
2023-03-13T17:16:45.013Z,0.95
2023-03-13T17:19:17.406Z,1.30
2023-03-13T17:21:45.806Z,1.30
2023-03-13T17:24:14.071Z,1.73
2023-03-13T17:26:42.502Z,1.85
2023-03-13T17:29:17.640Z,2.70
2023-03-13T17:31:46.367Z,2.30
2023-03-13T17:34:16.830Z,0.90
2023-03-13T17:36:45.547Z,2.55
2023-03-13T17:39:15.998Z,1.42
2023-03-13T17:41:44.262Z,0.67
2023-03-13T17:44:12.553Z,2.00
2023-03-13T17:46:44.148Z,1.25
2023-03-13T17:49:14.274Z,2.60
2023-03-13T17:51:46.412Z,1.77
2023-03-13T17:54:16.090Z,0.70
2023-03-13T17:56:45.789Z,0.90
2023-03-13T17:59:16.538Z,0.68
2023-03-13T18:01:46.101Z,1.35
2023-03-13T18:04:14.786Z,0.70
2023-03-13T18:06:46.893Z,0.45
2023-03-13T18:09:17.807Z,2.17
2023-03-13T18:11:46.168Z,0.17
2023-03-13T18:14:14.604Z,0.10
2023-03-13T18:16:47.831Z,1.17
2023-03-13T18:19:21.334Z,1.35
2023-03-13T18:21:54.150Z,1.05
2023-03-13T18:24:23.151Z,0.40
2023-03-13T18:26:51.677Z,0.75
2023-03-13T18:29:26.517Z,1.00
2023-03-13T18:31:56.594Z,0.75
2023-03-13T18:34:25.946Z,1.02
2023-03-13T18:36:56.420Z,1.75
2023-03-13T18:39:24.889Z,2.80
2023-03-13T18:41:53.327Z,1.20
2023-03-13T18:44:21.816Z,1.23
2023-03-13T18:46:52.070Z,1.60
2023-03-13T18:49:24.806Z,1.92
2023-03-13T18:51:55.348Z,0.80
2023-03-13T18:54:23.666Z,0.90
2023-03-13T18:56:51.939Z,1.60
2023-03-13T18:59:22.650Z,2.50
2023-03-13T19:01:51.417Z,1.92
2023-03-13T19:04:20.992Z,1.40
2023-03-13T19:06:49.781Z,3.83
2023-03-13T19:09:42.349Z,2.60
2023-03-13T19:12:11.295Z,1.13
2023-03-13T19:14:39.842Z,1.50
2023-03-13T19:17:19.593Z,1.25
2023-03-13T19:19:47.929Z,2.40
2023-03-13T19:22:16.225Z,3.80
2023-03-13T19:24:45.890Z,2.03
2023-03-13T19:27:17.044Z,1.45
2023-03-13T19:29:46.869Z,0.65
2023-03-13T19:32:17.094Z,2.40
2023-03-13T19:34:45.655Z,1.75
2023-03-13T19:37:16.036Z,2.30
2023-03-13T19:39:46.217Z,2.67
2023-03-13T19:42:14.491Z,2.93
2023-03-13T19:44:42.953Z,1.83
2023-03-13T19:47:16.518Z,1.20
2023-03-13T19:49:45.522Z,1.80
2023-03-13T19:52:13.853Z,2.45
2023-03-13T19:54:42.180Z,1.98
2023-03-13T19:57:12.726Z,1.83
2023-03-13T19:59:41.016Z,1.08
2023-03-13T20:02:11.007Z,3.22
2023-03-13T20:04:39.632Z,1.92
2023-03-13T20:07:08.308Z,1.23
2023-03-13T20:09:36.933Z,1.88
2023-03-13T20:12:06.080Z,1.93
2023-03-13T20:14:36.038Z,2.28
2023-03-13T20:17:04.404Z,1.88
2023-03-13T20:19:32.917Z,2.50
2023-03-13T20:22:03.785Z,1.23
2023-03-13T20:24:33.635Z,3.13
2023-03-13T20:27:02.434Z,1.77
2023-03-13T20:29:30.721Z,2.53
2023-03-13T20:32:01.370Z,1.65
2023-03-13T20:34:29.861Z,1.05
2023-03-13T20:36:59.981Z,1.45
2023-03-13T20:39:29.120Z,3.17
2023-03-13T20:41:57.542Z,1.77
2023-03-13T20:44:25.939Z,2.65
2023-03-13T20:46:54.217Z,1.17
2023-03-13T20:49:24.114Z,2.47
2023-03-13T20:51:52.582Z,2.30
2023-03-13T20:54:22.422Z,1.38
2023-03-13T20:56:50.675Z,3.22
2023-03-13T20:59:19.002Z,3.28
2023-03-13T21:01:47.590Z,2.03
2023-03-13T21:04:16.257Z,1.50
2023-03-13T21:06:46.210Z,2.25
2023-03-13T21:09:14.799Z,1.00
2023-03-13T21:11:43.399Z,1.80
2023-03-13T21:14:11.972Z,2.67
2023-03-13T21:16:40.591Z,1.70
2023-03-13T21:19:09.246Z,0.77
2023-03-13T21:21:37.834Z,1.70
2023-03-13T21:24:08.712Z,0.67
2023-03-13T21:26:37.329Z,2.05
2023-03-13T21:29:06.210Z,2.50
2023-03-13T21:31:35.695Z,1.73
2023-03-13T21:34:07.365Z,1.05
2023-03-13T21:36:35.973Z,1.17
2023-03-13T21:39:08.027Z,1.70
2023-03-13T21:41:39.516Z,1.58
2023-03-13T21:44:08.414Z,1.40
2023-03-13T21:46:37.106Z,1.15
2023-03-13T21:49:05.698Z,1.70
2023-03-13T21:51:34.275Z,2.03
2023-03-13T21:54:02.858Z,1.98
2023-03-13T21:56:31.475Z,0.88
2023-03-13T21:59:01.427Z,2.03
2023-03-13T22:01:30.015Z,0.93
2023-03-13T22:03:58.562Z,1.17
2023-03-13T22:06:27.178Z,1.75
2023-03-13T22:08:55.709Z,2.07
2023-03-13T22:11:24.377Z,2.47
2023-03-13T22:13:52.906Z,4.78
2023-03-13T22:16:25.373Z,1.58
2023-03-13T22:18:54.341Z,1.70
2023-03-13T22:21:23.037Z,1.77
2023-03-13T22:23:51.685Z,1.33
2023-03-13T22:26:20.295Z,2.90
2023-03-13T22:28:48.901Z,2.23
2023-03-13T22:31:18.536Z,2.85
2023-03-13T22:33:48.493Z,1.05
2023-03-13T22:36:17.147Z,3.15
2023-03-13T22:38:45.887Z,2.35
2023-03-13T22:41:16.283Z,1.27
2023-03-13T22:43:45.332Z,1.98
2023-03-13T22:46:14.547Z,1.83
2023-03-13T22:48:43.210Z,1.25
2023-03-13T22:51:14.557Z,2.60
2023-03-13T22:53:43.706Z,2.17
2023-03-13T22:56:13.244Z,1.95
2023-03-13T22:58:43.034Z,2.50
2023-03-13T23:01:13.522Z,1.30
2023-03-13T23:03:42.421Z,1.50
2023-03-13T23:06:16.054Z,1.02
2023-03-13T23:08:44.641Z,1.05
2023-03-13T23:11:13.689Z,1.65
2023-03-13T23:13:42.235Z,1.40
2023-03-13T23:16:12.366Z,3.17
2023-03-13T23:18:41.613Z,1.50
2023-03-13T23:21:12.318Z,1.17
2023-03-13T23:23:43.116Z,2.38
2023-03-13T23:26:13.542Z,1.67
2023-03-13T23:28:42.549Z,1.17
2023-03-13T23:31:13.080Z,1.90
2023-03-13T23:33:41.982Z,1.70
2023-03-13T23:36:13.577Z,1.92
2023-03-13T23:38:44.046Z,1.30
2023-03-13T23:41:14.384Z,3.93
2023-03-13T23:43:43.205Z,1.25
2023-03-13T23:46:17.730Z,2.88
2023-03-13T23:48:46.310Z,2.67
2023-03-13T23:51:14.984Z,2.05
2023-03-13T23:53:45.344Z,2.20
2023-03-13T23:56:16.082Z,0.70
2023-03-13T23:58:44.758Z,2.47
